sensor_id;sensor_type;location;lat;lon;timestamp;P1;durP1;ratioP1;P2;durP2;ratioP2
51618;SDS011;38518;53.164;5.430;2023-03-03T00:00:58;2.95;;;1.33;;
51618;SDS011;38518;53.164;5.430;2023-03-03T00:03:24;9.63;;;2.03;;
51618;SDS011;38518;53.164;5.430;2023-03-03T00:05:51;3.60;;;1.83;;
51618;SDS011;38518;53.164;5.430;2023-03-03T00:08:18;10.02;;;2.30;;
51618;SDS011;38518;53.164;5.430;2023-03-03T00:10:45;6.65;;;1.73;;
51618;SDS011;38518;53.164;5.430;2023-03-03T00:13:18;5.15;;;1.73;;
51618;SDS011;38518;53.164;5.430;2023-03-03T00:15:46;3.20;;;1.30;;
51618;SDS011;38518;53.164;5.430;2023-03-03T00:18:25;5.72;;;1.85;;
51618;SDS011;38518;53.164;5.430;2023-03-03T00:21:00;5.25;;;1.30;;
51618;SDS011;38518;53.164;5.430;2023-03-03T00:23:29;6.30;;;1.30;;
51618;SDS011;38518;53.164;5.430;2023-03-03T00:25:56;4.05;;;1.50;;
51618;SDS011;38518;53.164;5.430;2023-03-03T00:28:28;7.40;;;2.08;;
51618;SDS011;38518;53.164;5.430;2023-03-03T00:30:56;5.85;;;1.40;;
51618;SDS011;38518;53.164;5.430;2023-03-03T00:33:27;4.13;;;1.70;;
51618;SDS011;38518;53.164;5.430;2023-03-03T00:36:07;5.25;;;1.73;;
51618;SDS011;38518;53.164;5.430;2023-03-03T00:41:48;3.05;;;1.38;;
51618;SDS011;38518;53.164;5.430;2023-03-03T00:46:53;5.95;;;1.10;;
51618;SDS011;38518;53.164;5.430;2023-03-03T00:49:21;7.43;;;1.63;;
51618;SDS011;38518;53.164;5.430;2023-03-03T00:51:51;5.88;;;1.40;;
51618;SDS011;38518;53.164;5.430;2023-03-03T00:54:20;8.70;;;1.50;;
51618;SDS011;38518;53.164;5.430;2023-03-03T00:56:46;5.22;;;1.40;;
51618;SDS011;38518;53.164;5.430;2023-03-03T00:59:11;5.03;;;1.40;;
51618;SDS011;38518;53.164;5.430;2023-03-03T01:01:37;4.75;;;1.20;;
51618;SDS011;38518;53.164;5.430;2023-03-03T01:04:03;5.65;;;1.80;;
51618;SDS011;38518;53.164;5.430;2023-03-03T01:06:29;3.58;;;1.52;;
51618;SDS011;38518;53.164;5.430;2023-03-03T01:08:55;4.03;;;1.50;;
51618;SDS011;38518;53.164;5.430;2023-03-03T01:11:22;3.38;;;1.20;;
51618;SDS011;38518;53.164;5.430;2023-03-03T01:13:50;5.63;;;1.40;;
51618;SDS011;38518;53.164;5.430;2023-03-03T01:16:17;3.58;;;1.20;;
51618;SDS011;38518;53.164;5.430;2023-03-03T01:18:43;4.68;;;1.50;;
51618;SDS011;38518;53.164;5.430;2023-03-03T01:21:09;3.83;;;1.35;;
51618;SDS011;38518;53.164;5.430;2023-03-03T01:23:36;4.63;;;1.83;;
51618;SDS011;38518;53.164;5.430;2023-03-03T01:26:03;6.78;;;1.60;;
51618;SDS011;38518;53.164;5.430;2023-03-03T01:28:29;4.68;;;1.55;;
51618;SDS011;38518;53.164;5.430;2023-03-03T01:31:03;3.30;;;1.42;;
51618;SDS011;38518;53.164;5.430;2023-03-03T01:33:29;2.53;;;1.33;;
51618;SDS011;38518;53.164;5.430;2023-03-03T01:35:55;7.00;;;1.80;;
51618;SDS011;38518;53.164;5.430;2023-03-03T01:38:21;4.18;;;1.83;;
51618;SDS011;38518;53.164;5.430;2023-03-03T01:40:51;2.55;;;1.40;;
51618;SDS011;38518;53.164;5.430;2023-03-03T01:43:22;4.13;;;1.40;;
51618;SDS011;38518;53.164;5.430;2023-03-03T01:48:18;5.88;;;1.13;;
51618;SDS011;38518;53.164;5.430;2023-03-03T01:51:08;4.45;;;1.40;;
51618;SDS011;38518;53.164;5.430;2023-03-03T01:53:52;3.40;;;1.20;;
51618;SDS011;38518;53.164;5.430;2023-03-03T01:56:21;2.88;;;1.50;;
51618;SDS011;38518;53.164;5.430;2023-03-03T01:58:51;4.63;;;1.70;;
51618;SDS011;38518;53.164;5.430;2023-03-03T02:01:38;5.32;;;1.48;;
51618;SDS011;38518;53.164;5.430;2023-03-03T02:04:05;5.28;;;1.48;;
51618;SDS011;38518;53.164;5.430;2023-03-03T02:06:39;3.97;;;1.60;;
51618;SDS011;38518;53.164;5.430;2023-03-03T02:09:24;5.65;;;1.40;;
51618;SDS011;38518;53.164;5.430;2023-03-03T02:12:11;2.78;;;1.40;;
51618;SDS011;38518;53.164;5.430;2023-03-03T02:14:40;3.72;;;1.25;;
51618;SDS011;38518;53.164;5.430;2023-03-03T02:17:06;3.40;;;1.52;;
51618;SDS011;38518;53.164;5.430;2023-03-03T02:19:53;4.70;;;1.58;;
51618;SDS011;38518;53.164;5.430;2023-03-03T02:22:38;3.03;;;1.52;;
51618;SDS011;38518;53.164;5.430;2023-03-03T02:25:33;4.47;;;1.67;;
51618;SDS011;38518;53.164;5.430;2023-03-03T02:28:07;4.93;;;1.42;;
51618;SDS011;38518;53.164;5.430;2023-03-03T02:30:35;4.00;;;1.55;;
51618;SDS011;38518;53.164;5.430;2023-03-03T02:33:02;6.15;;;1.50;;
51618;SDS011;38518;53.164;5.430;2023-03-03T02:35:36;3.13;;;1.42;;
51618;SDS011;38518;53.164;5.430;2023-03-03T02:38:06;4.93;;;1.55;;
51618;SDS011;38518;53.164;5.430;2023-03-03T02:40:35;4.95;;;1.40;;
51618;SDS011;38518;53.164;5.430;2023-03-03T02:43:05;6.47;;;1.50;;
51618;SDS011;38518;53.164;5.430;2023-03-03T02:45:32;3.10;;;1.40;;
51618;SDS011;38518;53.164;5.430;2023-03-03T02:47:58;3.15;;;1.52;;
51618;SDS011;38518;53.164;5.430;2023-03-03T02:50:24;4.03;;;1.85;;
51618;SDS011;38518;53.164;5.430;2023-03-03T02:52:49;2.80;;;1.55;;
51618;SDS011;38518;53.164;5.430;2023-03-03T02:55:15;3.33;;;1.58;;
51618;SDS011;38518;53.164;5.430;2023-03-03T02:57:41;8.00;;;1.90;;
51618;SDS011;38518;53.164;5.430;2023-03-03T03:00:07;4.55;;;1.73;;
51618;SDS011;38518;53.164;5.430;2023-03-03T03:02:33;3.78;;;1.98;;
51618;SDS011;38518;53.164;5.430;2023-03-03T03:04:59;3.63;;;1.70;;
51618;SDS011;38518;53.164;5.430;2023-03-03T03:07:25;3.83;;;2.05;;
51618;SDS011;38518;53.164;5.430;2023-03-03T03:09:50;4.80;;;1.50;;
51618;SDS011;38518;53.164;5.430;2023-03-03T03:12:17;6.07;;;2.10;;
51618;SDS011;38518;53.164;5.430;2023-03-03T03:14:43;3.65;;;2.00;;
51618;SDS011;38518;53.164;5.430;2023-03-03T03:17:14;4.15;;;1.85;;
51618;SDS011;38518;53.164;5.430;2023-03-03T03:19:40;4.65;;;1.98;;
51618;SDS011;38518;53.164;5.430;2023-03-03T03:22:06;4.53;;;1.85;;
51618;SDS011;38518;53.164;5.430;2023-03-03T03:24:31;5.45;;;1.77;;
51618;SDS011;38518;53.164;5.430;2023-03-03T03:26:57;4.15;;;1.98;;
51618;SDS011;38518;53.164;5.430;2023-03-03T03:29:23;4.15;;;1.95;;
51618;SDS011;38518;53.164;5.430;2023-03-03T03:31:49;3.05;;;1.83;;
51618;SDS011;38518;53.164;5.430;2023-03-03T03:34:14;3.85;;;1.63;;
51618;SDS011;38518;53.164;5.430;2023-03-03T03:36:40;6.95;;;2.00;;
51618;SDS011;38518;53.164;5.430;2023-03-03T03:39:07;5.00;;;1.67;;
51618;SDS011;38518;53.164;5.430;2023-03-03T03:41:33;6.05;;;1.70;;
51618;SDS011;38518;53.164;5.430;2023-03-03T03:43:58;6.53;;;1.80;;
51618;SDS011;38518;53.164;5.430;2023-03-03T03:46:24;6.70;;;2.00;;
51618;SDS011;38518;53.164;5.430;2023-03-03T03:48:50;6.53;;;1.88;;
51618;SDS011;38518;53.164;5.430;2023-03-03T03:51:16;4.10;;;2.35;;
51618;SDS011;38518;53.164;5.430;2023-03-03T03:53:42;4.13;;;1.65;;
51618;SDS011;38518;53.164;5.430;2023-03-03T03:56:07;4.32;;;2.05;;
51618;SDS011;38518;53.164;5.430;2023-03-03T03:58:33;5.10;;;1.90;;
51618;SDS011;38518;53.164;5.430;2023-03-03T04:01:03;5.15;;;1.98;;
51618;SDS011;38518;53.164;5.430;2023-03-03T04:03:30;5.88;;;2.17;;
51618;SDS011;38518;53.164;5.430;2023-03-03T04:05:56;5.10;;;1.83;;
51618;SDS011;38518;53.164;5.430;2023-03-03T04:08:22;9.30;;;2.10;;
51618;SDS011;38518;53.164;5.430;2023-03-03T04:10:48;7.20;;;1.90;;
51618;SDS011;38518;53.164;5.430;2023-03-03T04:13:13;3.60;;;1.65;;
51618;SDS011;38518;53.164;5.430;2023-03-03T04:15:40;2.92;;;1.50;;
51618;SDS011;38518;53.164;5.430;2023-03-03T04:18:06;7.65;;;2.00;;
51618;SDS011;38518;53.164;5.430;2023-03-03T04:20:32;7.43;;;2.20;;
51618;SDS011;38518;53.164;5.430;2023-03-03T04:22:57;5.80;;;2.10;;
51618;SDS011;38518;53.164;5.430;2023-03-03T04:25:26;7.05;;;1.92;;
51618;SDS011;38518;53.164;5.430;2023-03-03T04:27:52;4.45;;;2.03;;
51618;SDS011;38518;53.164;5.430;2023-03-03T04:30:18;3.92;;;1.80;;
51618;SDS011;38518;53.164;5.430;2023-03-03T04:32:44;4.75;;;2.03;;
51618;SDS011;38518;53.164;5.430;2023-03-03T04:35:10;2.28;;;1.50;;
51618;SDS011;38518;53.164;5.430;2023-03-03T04:37:36;4.20;;;1.92;;
51618;SDS011;38518;53.164;5.430;2023-03-03T04:40:03;3.35;;;1.80;;
51618;SDS011;38518;53.164;5.430;2023-03-03T04:42:30;6.65;;;1.80;;
51618;SDS011;38518;53.164;5.430;2023-03-03T04:44:56;4.95;;;1.77;;
51618;SDS011;38518;53.164;5.430;2023-03-03T04:47:22;4.55;;;1.60;;
51618;SDS011;38518;53.164;5.430;2023-03-03T04:49:48;3.58;;;1.40;;
51618;SDS011;38518;53.164;5.430;2023-03-03T04:52:14;6.25;;;1.67;;
51618;SDS011;38518;53.164;5.430;2023-03-03T04:54:39;3.15;;;1.85;;
51618;SDS011;38518;53.164;5.430;2023-03-03T04:57:05;5.70;;;1.92;;
51618;SDS011;38518;53.164;5.430;2023-03-03T04:59:33;8.23;;;1.85;;
51618;SDS011;38518;53.164;5.430;2023-03-03T05:02:00;7.53;;;1.88;;
51618;SDS011;38518;53.164;5.430;2023-03-03T05:04:25;5.30;;;1.92;;
51618;SDS011;38518;53.164;5.430;2023-03-03T05:06:53;4.00;;;2.22;;
51618;SDS011;38518;53.164;5.430;2023-03-03T05:09:21;2.38;;;1.70;;
51618;SDS011;38518;53.164;5.430;2023-03-03T05:11:47;4.65;;;1.80;;
51618;SDS011;38518;53.164;5.430;2023-03-03T05:14:13;5.28;;;1.77;;
51618;SDS011;38518;53.164;5.430;2023-03-03T05:16:39;4.70;;;1.73;;
51618;SDS011;38518;53.164;5.430;2023-03-03T05:19:05;6.63;;;1.60;;
51618;SDS011;38518;53.164;5.430;2023-03-03T05:21:30;4.35;;;2.15;;
51618;SDS011;38518;53.164;5.430;2023-03-03T05:23:56;3.90;;;1.75;;
51618;SDS011;38518;53.164;5.430;2023-03-03T05:26:22;7.03;;;2.10;;
51618;SDS011;38518;53.164;5.430;2023-03-03T05:28:48;3.45;;;1.63;;
51618;SDS011;38518;53.164;5.430;2023-03-03T05:31:13;5.13;;;1.70;;
51618;SDS011;38518;53.164;5.430;2023-03-03T05:33:40;5.93;;;1.50;;
51618;SDS011;38518;53.164;5.430;2023-03-03T05:36:06;6.50;;;2.15;;
51618;SDS011;38518;53.164;5.430;2023-03-03T05:38:32;5.30;;;1.45;;
51618;SDS011;38518;53.164;5.430;2023-03-03T05:40:58;5.90;;;1.20;;
51618;SDS011;38518;53.164;5.430;2023-03-03T05:43:24;4.95;;;1.38;;
51618;SDS011;38518;53.164;5.430;2023-03-03T05:45:53;3.85;;;1.00;;
51618;SDS011;38518;53.164;5.430;2023-03-03T05:48:20;5.68;;;1.10;;
51618;SDS011;38518;53.164;5.430;2023-03-03T05:50:46;1.92;;;1.00;;
51618;SDS011;38518;53.164;5.430;2023-03-03T05:53:12;3.83;;;1.38;;
51618;SDS011;38518;53.164;5.430;2023-03-03T05:55:38;4.15;;;1.20;;
51618;SDS011;38518;53.164;5.430;2023-03-03T05:58:03;3.75;;;1.00;;
51618;SDS011;38518;53.164;5.430;2023-03-03T06:00:29;13.65;;;1.70;;
51618;SDS011;38518;53.164;5.430;2023-03-03T06:02:57;4.60;;;1.20;;
51618;SDS011;38518;53.164;5.430;2023-03-03T06:05:23;7.18;;;1.45;;
51618;SDS011;38518;53.164;5.430;2023-03-03T06:07:49;3.05;;;1.10;;
51618;SDS011;38518;53.164;5.430;2023-03-03T06:10:15;4.55;;;1.55;;
51618;SDS011;38518;53.164;5.430;2023-03-03T06:12:41;4.07;;;1.35;;
51618;SDS011;38518;53.164;5.430;2023-03-03T06:15:07;3.17;;;1.40;;
51618;SDS011;38518;53.164;5.430;2023-03-03T06:17:34;4.65;;;1.30;;
51618;SDS011;38518;53.164;5.430;2023-03-03T06:20:00;3.70;;;1.40;;
51618;SDS011;38518;53.164;5.430;2023-03-03T06:22:26;3.75;;;1.20;;
51618;SDS011;38518;53.164;5.430;2023-03-03T06:24:52;5.63;;;1.30;;
51618;SDS011;38518;53.164;5.430;2023-03-03T06:27:18;4.97;;;1.52;;
51618;SDS011;38518;53.164;5.430;2023-03-03T06:29:43;4.15;;;1.38;;
51618;SDS011;38518;53.164;5.430;2023-03-03T06:32:10;5.63;;;1.50;;
51618;SDS011;38518;53.164;5.430;2023-03-03T06:34:36;2.85;;;1.42;;
51618;SDS011;38518;53.164;5.430;2023-03-03T06:37:01;4.15;;;1.38;;
51618;SDS011;38518;53.164;5.430;2023-03-03T06:39:27;8.93;;;1.63;;
51618;SDS011;38518;53.164;5.430;2023-03-03T06:41:53;4.70;;;1.60;;
51618;SDS011;38518;53.164;5.430;2023-03-03T06:44:19;5.07;;;1.45;;
51618;SDS011;38518;53.164;5.430;2023-03-03T06:46:45;7.95;;;1.85;;
51618;SDS011;38518;53.164;5.430;2023-03-03T06:49:11;6.47;;;1.90;;
51618;SDS011;38518;53.164;5.430;2023-03-03T06:51:38;7.57;;;1.75;;
51618;SDS011;38518;53.164;5.430;2023-03-03T06:54:11;8.45;;;1.95;;
51618;SDS011;38518;53.164;5.430;2023-03-03T06:56:46;11.15;;;2.10;;
51618;SDS011;38518;53.164;5.430;2023-03-03T06:59:16;10.32;;;2.10;;
51618;SDS011;38518;53.164;5.430;2023-03-03T07:01:45;6.30;;;1.70;;
51618;SDS011;38518;53.164;5.430;2023-03-03T07:04:14;5.60;;;1.48;;
51618;SDS011;38518;53.164;5.430;2023-03-03T07:06:43;4.50;;;1.45;;
51618;SDS011;38518;53.164;5.430;2023-03-03T07:09:31;6.05;;;1.45;;
51618;SDS011;38518;53.164;5.430;2023-03-03T07:12:00;5.28;;;1.20;;
51618;SDS011;38518;53.164;5.430;2023-03-03T07:14:30;3.08;;;1.10;;
51618;SDS011;38518;53.164;5.430;2023-03-03T07:16:57;3.05;;;1.20;;
51618;SDS011;38518;53.164;5.430;2023-03-03T07:19:33;4.50;;;1.30;;
51618;SDS011;38518;53.164;5.430;2023-03-03T07:22:00;6.22;;;1.30;;
51618;SDS011;38518;53.164;5.430;2023-03-03T07:24:52;4.63;;;1.52;;
51618;SDS011;38518;53.164;5.430;2023-03-03T07:27:25;3.42;;;1.27;;
51618;SDS011;38518;53.164;5.430;2023-03-03T07:29:53;8.88;;;1.77;;
51618;SDS011;38518;53.164;5.430;2023-03-03T07:32:32;6.05;;;1.83;;
51618;SDS011;38518;53.164;5.430;2023-03-03T07:38:02;7.03;;;2.25;;
51618;SDS011;38518;53.164;5.430;2023-03-03T07:40:37;6.32;;;1.65;;
51618;SDS011;38518;53.164;5.430;2023-03-03T07:43:16;8.25;;;1.63;;
51618;SDS011;38518;53.164;5.430;2023-03-03T07:45:47;5.43;;;1.70;;
51618;SDS011;38518;53.164;5.430;2023-03-03T07:48:24;7.82;;;1.90;;
51618;SDS011;38518;53.164;5.430;2023-03-03T07:50:55;4.93;;;1.60;;
51618;SDS011;38518;53.164;5.430;2023-03-03T07:53:27;3.97;;;1.20;;
51618;SDS011;38518;53.164;5.430;2023-03-03T07:55:59;4.00;;;1.50;;
51618;SDS011;38518;53.164;5.430;2023-03-03T07:58:45;5.68;;;1.50;;
51618;SDS011;38518;53.164;5.430;2023-03-03T08:04:08;3.63;;;1.27;;
51618;SDS011;38518;53.164;5.430;2023-03-03T08:06:44;3.05;;;1.05;;
51618;SDS011;38518;53.164;5.430;2023-03-03T08:14:35;5.88;;;1.17;;
51618;SDS011;38518;53.164;5.430;2023-03-03T08:17:12;5.30;;;1.20;;
51618;SDS011;38518;53.164;5.430;2023-03-03T08:19:41;6.03;;;1.50;;
51618;SDS011;38518;53.164;5.430;2023-03-03T08:22:28;8.77;;;1.70;;
51618;SDS011;38518;53.164;5.430;2023-03-03T08:24:57;4.03;;;1.67;;
51618;SDS011;38518;53.164;5.430;2023-03-03T08:27:23;3.63;;;1.70;;
51618;SDS011;38518;53.164;5.430;2023-03-03T08:29:49;4.88;;;1.38;;
51618;SDS011;38518;53.164;5.430;2023-03-03T08:32:14;3.83;;;1.05;;
51618;SDS011;38518;53.164;5.430;2023-03-03T08:34:40;3.17;;;1.10;;
51618;SDS011;38518;53.164;5.430;2023-03-03T08:37:06;3.65;;;1.10;;
51618;SDS011;38518;53.164;5.430;2023-03-03T08:39:32;5.93;;;1.67;;
51618;SDS011;38518;53.164;5.430;2023-03-03T08:41:58;8.43;;;1.15;;
51618;SDS011;38518;53.164;5.430;2023-03-03T08:44:23;3.05;;;1.30;;
51618;SDS011;38518;53.164;5.430;2023-03-03T08:46:49;4.38;;;1.17;;
51618;SDS011;38518;53.164;5.430;2023-03-03T08:49:15;4.07;;;1.23;;
51618;SDS011;38518;53.164;5.430;2023-03-03T08:51:41;5.05;;;1.10;;
51618;SDS011;38518;53.164;5.430;2023-03-03T08:54:07;5.28;;;1.27;;
51618;SDS011;38518;53.164;5.430;2023-03-03T08:56:33;4.15;;;1.20;;
51618;SDS011;38518;53.164;5.430;2023-03-03T08:58:59;3.00;;;1.30;;
51618;SDS011;38518;53.164;5.430;2023-03-03T09:01:24;7.40;;;1.52;;
51618;SDS011;38518;53.164;5.430;2023-03-03T09:03:50;6.85;;;1.88;;
51618;SDS011;38518;53.164;5.430;2023-03-03T09:06:16;3.90;;;1.40;;
51618;SDS011;38518;53.164;5.430;2023-03-03T09:08:42;5.82;;;1.70;;
51618;SDS011;38518;53.164;5.430;2023-03-03T09:11:11;7.88;;;2.08;;
51618;SDS011;38518;53.164;5.430;2023-03-03T09:13:38;7.40;;;1.77;;
51618;SDS011;38518;53.164;5.430;2023-03-03T09:16:14;4.93;;;1.45;;
51618;SDS011;38518;53.164;5.430;2023-03-03T09:18:40;3.97;;;1.25;;
51618;SDS011;38518;53.164;5.430;2023-03-03T09:26:45;1.77;;;0.80;;
51618;SDS011;38518;53.164;5.430;2023-03-03T09:29:22;5.82;;;1.17;;
51618;SDS011;38518;53.164;5.430;2023-03-03T09:34:24;3.72;;;1.20;;
51618;SDS011;38518;53.164;5.430;2023-03-03T09:36:54;5.20;;;1.13;;
51618;SDS011;38518;53.164;5.430;2023-03-03T09:39:24;4.38;;;1.20;;
51618;SDS011;38518;53.164;5.430;2023-03-03T09:47:38;4.75;;;1.50;;
51618;SDS011;38518;53.164;5.430;2023-03-03T09:53:10;5.63;;;1.20;;
51618;SDS011;38518;53.164;5.430;2023-03-03T10:12:51;4.05;;;1.20;;
51618;SDS011;38518;53.164;5.430;2023-03-03T10:16:12;2.92;;;1.02;;
51618;SDS011;38518;53.164;5.430;2023-03-03T10:19:00;3.17;;;1.10;;
51618;SDS011;38518;53.164;5.430;2023-03-03T10:21:34;3.28;;;0.95;;
51618;SDS011;38518;53.164;5.430;2023-03-03T10:27:03;5.18;;;1.23;;
51618;SDS011;38518;53.164;5.430;2023-03-03T10:38:37;2.47;;;0.93;;
51618;SDS011;38518;53.164;5.430;2023-03-03T10:41:04;3.00;;;1.08;;
51618;SDS011;38518;53.164;5.430;2023-03-03T10:54:59;3.65;;;1.05;;
51618;SDS011;38518;53.164;5.430;2023-03-03T10:57:11;3.08;;;1.20;;
51618;SDS011;38518;53.164;5.430;2023-03-03T11:02:23;3.25;;;1.13;;
51618;SDS011;38518;53.164;5.430;2023-03-03T11:07:47;4.32;;;1.20;;
51618;SDS011;38518;53.164;5.430;2023-03-03T11:13:31;2.80;;;1.10;;
51618;SDS011;38518;53.164;5.430;2023-03-03T11:22:24;5.40;;;1.25;;
51618;SDS011;38518;53.164;5.430;2023-03-03T11:30:38;4.00;;;1.17;;
51618;SDS011;38518;53.164;5.430;2023-03-03T11:33:33;2.30;;;0.90;;
51618;SDS011;38518;53.164;5.430;2023-03-03T11:36:15;2.97;;;1.23;;
51618;SDS011;38518;53.164;5.430;2023-03-03T11:41:35;3.63;;;1.20;;
51618;SDS011;38518;53.164;5.430;2023-03-03T11:47:21;4.95;;;1.27;;
51618;SDS011;38518;53.164;5.430;2023-03-03T12:00:44;7.43;;;1.70;;
51618;SDS011;38518;53.164;5.430;2023-03-03T12:14:01;7.68;;;1.90;;
51618;SDS011;38518;53.164;5.430;2023-03-03T12:16:47;8.38;;;1.92;;
51618;SDS011;38518;53.164;5.430;2023-03-03T12:19:54;11.07;;;2.58;;
51618;SDS011;38518;53.164;5.430;2023-03-03T12:28:04;9.18;;;2.20;;
51618;SDS011;38518;53.164;5.430;2023-03-03T12:39:07;8.73;;;2.50;;
51618;SDS011;38518;53.164;5.430;2023-03-03T12:44:38;13.68;;;3.33;;
51618;SDS011;38518;53.164;5.430;2023-03-03T12:50:08;15.30;;;3.33;;
51618;SDS011;38518;53.164;5.430;2023-03-03T13:01:05;11.75;;;3.05;;
51618;SDS011;38518;53.164;5.430;2023-03-03T13:15:13;15.68;;;3.40;;
51618;SDS011;38518;53.164;5.430;2023-03-03T13:18:12;14.80;;;3.13;;
51618;SDS011;38518;53.164;5.430;2023-03-03T13:21:31;14.63;;;3.38;;
51618;SDS011;38518;53.164;5.430;2023-03-03T13:24:06;15.35;;;4.03;;
51618;SDS011;38518;53.164;5.430;2023-03-03T13:27:12;17.60;;;3.60;;
51618;SDS011;38518;53.164;5.430;2023-03-03T13:29:41;16.23;;;3.40;;
51618;SDS011;38518;53.164;5.430;2023-03-03T13:32:21;11.40;;;3.03;;
51618;SDS011;38518;53.164;5.430;2023-03-03T13:35:00;13.70;;;3.38;;
51618;SDS011;38518;53.164;5.430;2023-03-03T13:37:46;14.38;;;3.22;;
51618;SDS011;38518;53.164;5.430;2023-03-03T13:40:35;15.00;;;4.00;;
51618;SDS011;38518;53.164;5.430;2023-03-03T13:43:37;11.75;;;3.38;;
51618;SDS011;38518;53.164;5.430;2023-03-03T13:51:58;21.50;;;4.07;;
51618;SDS011;38518;53.164;5.430;2023-03-03T14:00:19;15.67;;;4.83;;
51618;SDS011;38518;53.164;5.430;2023-03-03T14:05:37;17.42;;;4.38;;
51618;SDS011;38518;53.164;5.430;2023-03-03T14:14:07;19.10;;;4.00;;
51618;SDS011;38518;53.164;5.430;2023-03-03T14:19:33;17.95;;;4.40;;
51618;SDS011;38518;53.164;5.430;2023-03-03T14:35:43;22.25;;;4.93;;
51618;SDS011;38518;53.164;5.430;2023-03-03T14:38:16;20.58;;;4.15;;
51618;SDS011;38518;53.164;5.430;2023-03-03T14:40:44;19.75;;;5.32;;
51618;SDS011;38518;53.164;5.430;2023-03-03T14:43:19;19.45;;;4.57;;
51618;SDS011;38518;53.164;5.430;2023-03-03T14:49:12;16.73;;;4.22;;
51618;SDS011;38518;53.164;5.430;2023-03-03T14:51:56;19.33;;;4.10;;
51618;SDS011;38518;53.164;5.430;2023-03-03T14:54:45;22.23;;;3.42;;
51618;SDS011;38518;53.164;5.430;2023-03-03T15:02:40;20.23;;;4.65;;
51618;SDS011;38518;53.164;5.430;2023-03-03T15:10:41;15.93;;;4.60;;
51618;SDS011;38518;53.164;5.430;2023-03-03T15:15:50;18.13;;;4.38;;
51618;SDS011;38518;53.164;5.430;2023-03-03T15:18:27;16.45;;;4.07;;
51618;SDS011;38518;53.164;5.430;2023-03-03T15:42:23;22.05;;;3.97;;
51618;SDS011;38518;53.164;5.430;2023-03-03T15:57:09;15.02;;;4.13;;
51618;SDS011;38518;53.164;5.430;2023-03-03T16:02:22;15.27;;;4.53;;
51618;SDS011;38518;53.164;5.430;2023-03-03T16:05:15;18.05;;;3.63;;
51618;SDS011;38518;53.164;5.430;2023-03-03T16:08:12;15.95;;;4.15;;
51618;SDS011;38518;53.164;5.430;2023-03-03T16:16:23;16.10;;;3.72;;
51618;SDS011;38518;53.164;5.430;2023-03-03T16:18:56;21.13;;;4.50;;
51618;SDS011;38518;53.164;5.430;2023-03-03T16:24:44;19.20;;;4.70;;
51618;SDS011;38518;53.164;5.430;2023-03-03T16:30:10;19.23;;;4.30;;
51618;SDS011;38518;53.164;5.430;2023-03-03T16:32:52;19.77;;;3.75;;
51618;SDS011;38518;53.164;5.430;2023-03-03T16:35:32;22.15;;;4.32;;
51618;SDS011;38518;53.164;5.430;2023-03-03T16:38:16;19.05;;;5.00;;
51618;SDS011;38518;53.164;5.430;2023-03-03T16:40:52;17.52;;;4.93;;
51618;SDS011;38518;53.164;5.430;2023-03-03T16:45:55;18.10;;;5.00;;
51618;SDS011;38518;53.164;5.430;2023-03-03T16:51:57;18.52;;;4.75;;
51618;SDS011;38518;53.164;5.430;2023-03-03T16:54:43;26.25;;;4.60;;
51618;SDS011;38518;53.164;5.430;2023-03-03T17:05:52;18.63;;;4.97;;
51618;SDS011;38518;53.164;5.430;2023-03-03T17:30:02;19.38;;;5.40;;
51618;SDS011;38518;53.164;5.430;2023-03-03T17:43:16;27.88;;;6.25;;
51618;SDS011;38518;53.164;5.430;2023-03-03T17:45:59;24.70;;;5.72;;
51618;SDS011;38518;53.164;5.430;2023-03-03T17:48:40;24.13;;;5.45;;
51618;SDS011;38518;53.164;5.430;2023-03-03T18:13:09;19.52;;;4.65;;
51618;SDS011;38518;53.164;5.430;2023-03-03T18:16:11;21.35;;;5.20;;
51618;SDS011;38518;53.164;5.430;2023-03-03T18:33:06;18.05;;;4.47;;
51618;SDS011;38518;53.164;5.430;2023-03-03T18:35:39;14.50;;;3.40;;
51618;SDS011;38518;53.164;5.430;2023-03-03T18:40:59;15.25;;;4.53;;
51618;SDS011;38518;53.164;5.430;2023-03-03T18:46:04;22.10;;;4.00;;
51618;SDS011;38518;53.164;5.430;2023-03-03T18:48:49;18.05;;;4.45;;
51618;SDS011;38518;53.164;5.430;2023-03-03T19:04:36;25.35;;;5.30;;
51618;SDS011;38518;53.164;5.430;2023-03-03T19:37:52;17.02;;;4.25;;
51618;SDS011;38518;53.164;5.430;2023-03-03T19:49:03;17.17;;;4.53;;
51618;SDS011;38518;53.164;5.430;2023-03-03T19:54:34;16.67;;;3.45;;
51618;SDS011;38518;53.164;5.430;2023-03-03T19:57:04;17.35;;;4.03;;
51618;SDS011;38518;53.164;5.430;2023-03-03T19:59:46;15.05;;;3.05;;
51618;SDS011;38518;53.164;5.430;2023-03-03T20:02:34;20.55;;;3.38;;
51618;SDS011;38518;53.164;5.430;2023-03-03T20:05:22;18.50;;;4.20;;
51618;SDS011;38518;53.164;5.430;2023-03-03T20:08:04;12.57;;;4.70;;
51618;SDS011;38518;53.164;5.430;2023-03-03T20:10:55;24.00;;;5.03;;
51618;SDS011;38518;53.164;5.430;2023-03-03T20:24:08;15.23;;;3.65;;
51618;SDS011;38518;53.164;5.430;2023-03-03T20:26:51;19.58;;;4.53;;
51618;SDS011;38518;53.164;5.430;2023-03-03T20:37:56;18.63;;;4.25;;
51618;SDS011;38518;53.164;5.430;2023-03-03T20:46:01;13.07;;;3.58;;
51618;SDS011;38518;53.164;5.430;2023-03-03T20:51:49;15.50;;;3.60;;
51618;SDS011;38518;53.164;5.430;2023-03-03T20:57:14;18.70;;;3.78;;
51618;SDS011;38518;53.164;5.430;2023-03-03T21:00:11;14.75;;;3.40;;
51618;SDS011;38518;53.164;5.430;2023-03-03T21:03:02;19.88;;;4.40;;
51618;SDS011;38518;53.164;5.430;2023-03-03T21:05:37;16.63;;;3.72;;
51618;SDS011;38518;53.164;5.430;2023-03-03T21:08:38;17.45;;;3.78;;
51618;SDS011;38518;53.164;5.430;2023-03-03T21:11:07;14.18;;;3.20;;
51618;SDS011;38518;53.164;5.430;2023-03-03T21:13:37;13.13;;;3.47;;
51618;SDS011;38518;53.164;5.430;2023-03-03T21:16:32;17.45;;;4.65;;
51618;SDS011;38518;53.164;5.430;2023-03-03T21:18:58;20.60;;;3.80;;
51618;SDS011;38518;53.164;5.430;2023-03-03T21:21:31;13.88;;;3.40;;
51618;SDS011;38518;53.164;5.430;2023-03-03T21:23:58;17.23;;;4.13;;
51618;SDS011;38518;53.164;5.430;2023-03-03T21:31:54;17.13;;;3.03;;
51618;SDS011;38518;53.164;5.430;2023-03-03T21:34:22;13.90;;;3.67;;
51618;SDS011;38518;53.164;5.430;2023-03-03T21:36:52;12.52;;;3.22;;
51618;SDS011;38518;53.164;5.430;2023-03-03T21:39:34;21.80;;;4.35;;
51618;SDS011;38518;53.164;5.430;2023-03-03T21:42:11;13.25;;;2.88;;
51618;SDS011;38518;53.164;5.430;2023-03-03T21:44:42;12.18;;;3.40;;
51618;SDS011;38518;53.164;5.430;2023-03-03T21:47:27;12.63;;;3.25;;
51618;SDS011;38518;53.164;5.430;2023-03-03T21:49:53;14.35;;;3.35;;
51618;SDS011;38518;53.164;5.430;2023-03-03T21:52:19;17.00;;;3.33;;
51618;SDS011;38518;53.164;5.430;2023-03-03T21:54:47;13.02;;;3.45;;
51618;SDS011;38518;53.164;5.430;2023-03-03T21:57:14;12.82;;;2.78;;
51618;SDS011;38518;53.164;5.430;2023-03-03T21:59:40;17.77;;;3.75;;
51618;SDS011;38518;53.164;5.430;2023-03-03T22:02:09;15.57;;;3.33;;
51618;SDS011;38518;53.164;5.430;2023-03-03T22:04:35;14.20;;;3.88;;
51618;SDS011;38518;53.164;5.430;2023-03-03T22:07:03;15.00;;;3.03;;
51618;SDS011;38518;53.164;5.430;2023-03-03T22:09:29;16.15;;;2.75;;
51618;SDS011;38518;53.164;5.430;2023-03-03T22:11:55;17.35;;;3.42;;
51618;SDS011;38518;53.164;5.430;2023-03-03T22:14:20;13.10;;;3.25;;
51618;SDS011;38518;53.164;5.430;2023-03-03T22:16:46;15.60;;;2.50;;
51618;SDS011;38518;53.164;5.430;2023-03-03T22:19:12;15.32;;;3.63;;
51618;SDS011;38518;53.164;5.430;2023-03-03T22:21:38;14.00;;;3.13;;
51618;SDS011;38518;53.164;5.430;2023-03-03T22:24:05;15.70;;;3.10;;
51618;SDS011;38518;53.164;5.430;2023-03-03T22:26:31;14.95;;;4.18;;
51618;SDS011;38518;53.164;5.430;2023-03-03T22:28:58;17.77;;;3.30;;
51618;SDS011;38518;53.164;5.430;2023-03-03T22:31:24;13.50;;;3.38;;
51618;SDS011;38518;53.164;5.430;2023-03-03T22:33:49;18.48;;;4.25;;
51618;SDS011;38518;53.164;5.430;2023-03-03T22:36:15;14.68;;;3.83;;